Time;durP1;ratioP1;P1;durP2;ratioP2;P2;SDS_P1;SDS_P2;PMS_P1;PMS_P2;Temp;Humidity;BMP_temperature;BMP_pressure;BME280_temperature;BME280_humidity;BME280_pressure;Samples;Min_cycle;Max_cycle;Signal;HPM_P1;HPM_P2
2021/06/29 00:01:16;;;;;;;6.53;3.58;;;;;;;14.32;100.00;93855.97;5133766;27;20208;-79
2021/06/29 00:03:42;;;;;;;6.38;3.42;;;;;;;14.33;100.00;93851.50;5133659;27;20226;-80
2021/06/29 00:06:09;;;;;;;5.57;4.07;;;;;;;14.28;100.00;93846.91;5133794;27;20207;-79
2021/06/29 00:08:37;;;;;;;5.72;3.83;;;;;;;14.25;100.00;93847.34;5133949;28;20196;-80
2021/06/29 00:11:03;;;;;;;5.07;3.77;;;;;;;14.21;100.00;93846.19;5133846;28;20228;-80
2021/06/29 00:13:30;;;;;;;9.48;4.47;;;;;;;14.26;100.00;93859.47;5133809;28;20201;-80
2021/06/29 00:15:56;;;;;;;9.70;3.60;;;;;;;14.27;100.00;93844.50;5133564;28;20197;-80
2021/06/29 00:18:23;;;;;;;5.03;3.58;;;;;;;14.29;100.00;93845.91;5133864;28;20193;-82
2021/06/29 00:20:49;;;;;;;10.48;4.22;;;;;;;14.24;100.00;93848.38;5133888;28;20224;-82
2021/06/29 00:23:16;;;;;;;6.30;4.13;;;;;;;14.27;100.00;93837.41;5133799;28;20100;-82
2021/06/29 00:25:45;;;;;;;11.15;4.47;;;;;;;14.29;100.00;93837.19;5133664;28;20197;-82
2021/06/29 00:48:23;;;;;;;8.52;5.65;;;;;;;14.32;100.00;93771.91;5128706;27;20196;-81
2021/06/29 00:50:49;;;;;;;9.37;5.90;;;;;;;14.31;100.00;93769.50;5133275;28;20200;-80
2021/06/29 00:53:16;;;;;;;7.97;5.57;;;;;;;14.31;100.00;93769.50;5133534;28;20196;-80
2021/06/29 00:55:43;;;;;;;13.55;5.63;;;;;;;14.30;100.00;93767.91;5133346;28;20722;-80
2021/06/29 00:58:10;;;;;;;6.55;5.15;;;;;;;14.27;100.00;93774.38;5133062;28;20292;-79
2021/06/29 01:00:38;;;;;;;7.72;5.50;;;;;;;14.29;100.00;93777.63;5131169;28;20196;-81
2021/06/29 01:03:05;;;;;;;6.72;4.80;;;;;;;14.28;100.00;93765.50;5133266;28;20246;-81
2021/06/29 01:05:34;;;;;;;8.25;6.03;;;;;;;14.26;100.00;93746.53;5133210;28;20242;-80
2021/06/29 01:08:00;;;;;;;8.73;5.20;;;;;;;14.25;100.00;93737.03;5133400;28;20604;-79
2021/06/29 01:10:27;;;;;;;5.72;4.50;;;;;;;14.23;100.00;93741.72;5133321;28;20236;-80
2021/06/29 01:12:54;;;;;;;5.95;4.43;;;;;;;14.28;100.00;93744.47;5134239;27;20203;-80
2021/06/29 01:15:23;;;;;;;6.47;4.30;;;;;;;14.31;100.00;93733.53;5136968;27;20582;-79
2021/06/29 01:17:51;;;;;;;5.68;3.90;;;;;;;14.30;100.00;93721.41;5136731;27;20292;-79
2021/06/29 01:20:23;;;;;;;5.05;4.20;;;;;;;14.37;100.00;93721.31;5136826;27;20200;-80
2021/06/29 01:22:52;;;;;;;6.00;3.72;;;;;;;14.39;100.00;93729.81;5136932;27;20220;-80
2021/06/29 01:25:18;;;;;;;4.35;2.80;;;;;;;14.51;100.00;93743.75;5136802;27;20250;-82
2021/06/29 01:27:53;;;;;;;3.75;2.63;;;;;;;14.57;100.00;93753.38;5136661;27;20235;-81
2021/06/29 01:33:04;;;;;;;7.70;4.22;;;;;;;14.47;100.00;93768.88;5136683;27;20234;-79
2021/06/29 01:35:51;;;;;;;5.95;4.10;;;;;;;14.41;100.00;93773.19;5136611;27;20200;-80
2021/06/29 01:38:20;;;;;;;4.68;3.80;;;;;;;14.40;100.00;93779.44;5136479;27;20196;-78
2021/06/29 01:40:46;;;;;;;3.90;3.40;;;;;;;14.37;100.00;93779.09;5136438;27;20205;-82
2021/06/29 01:43:14;;;;;;;5.38;3.15;;;;;;;14.39;100.00;93783.13;5136603;27;20220;-81
2021/06/29 01:45:43;;;;;;;4.75;3.40;;;;;;;14.42;100.00;93782.69;5136565;27;20250;-80
2021/06/29 01:48:17;;;;;;;4.05;3.25;;;;;;;14.44;100.00;93792.97;5136531;27;20197;-81
2021/06/29 01:50:44;;;;;;;4.07;2.50;;;;;;;14.53;100.00;93785.56;5136349;27;20200;-82
2021/06/29 01:53:12;;;;;;;2.55;1.80;;;;;;;14.63;100.00;93777.16;5136240;27;20217;-80
2021/06/29 01:55:41;;;;;;;2.03;1.70;;;;;;;14.62;100.00;93784.22;5136068;27;20196;-80
2021/06/29 01:58:07;;;;;;;3.50;2.10;;;;;;;14.63;100.00;93774.53;5136300;27;20196;-79
2021/06/29 02:00:34;;;;;;;4.18;2.40;;;;;;;14.66;100.00;93777.50;5136206;27;20193;-80
2021/06/29 02:03:01;;;;;;;3.92;2.38;;;;;;;14.56;100.00;93772.78;5136293;27;20221;-80
2021/06/29 02:05:27;;;;;;;5.32;2.33;;;;;;;14.52;100.00;93761.13;5136060;27;20604;-79
2021/06/29 02:07:54;;;;;;;3.47;2.35;;;;;;;14.50;100.00;93755.28;5136025;27;20228;-79
2021/06/29 02:10:22;;;;;;;3.15;2.17;;;;;;;14.47;100.00;93757.56;5135999;27;20204;-80
2021/06/29 02:12:48;;;;;;;2.25;1.90;;;;;;;14.49;100.00;93769.44;5135991;27;20193;-80
2021/06/29 02:15:15;;;;;;;5.70;2.20;;;;;;;14.48;100.00;93769.66;5135996;27;20205;-79
2021/06/29 02:17:42;;;;;;;2.60;2.00;;;;;;;14.37;100.00;93765.97;5135812;27;20208;-81
2021/06/29 02:20:10;;;;;;;2.67;2.38;;;;;;;14.44;100.00;93761.44;5135643;27;20220;-82
2021/06/29 02:22:37;;;;;;;3.17;2.20;;;;;;;14.51;100.00;93761.34;5135498;27;20200;-81
2021/06/29 02:25:06;;;;;;;2.92;2.22;;;;;;;14.51;100.00;93758.72;5134360;27;20224;-81
2021/06/29 02:27:34;;;;;;;2.42;1.80;;;;;;;14.49;100.00;93751.06;5135681;27;20232;-80
2021/06/29 02:30:01;;;;;;;2.28;1.80;;;;;;;14.52;100.00;93749.78;5135500;27;20651;-79
2021/06/29 02:32:29;;;;;;;3.40;1.70;;;;;;;14.55;100.00;93770.38;5135600;27;20205;-79
2021/06/29 02:34:55;;;;;;;3.80;1.73;;;;;;;14.59;100.00;93750.53;5135333;27;20208;-78
2021/06/29 02:37:22;;;;;;;2.67;1.63;;;;;;;14.62;100.00;93765.84;5135646;27;20197;-81
2021/06/29 02:39:48;;;;;;;2.23;1.60;;;;;;;14.53;100.00;93775.06;5136227;27;20196;-81
2021/06/29 02:42:17;;;;;;;2.70;1.77;;;;;;;14.61;100.00;93788.69;5135679;27;20644;-81
2021/06/29 02:44:45;;;;;;;3.85;1.63;;;;;;;14.59;100.00;93803.09;5135861;27;20232;-81
2021/06/29 02:47:12;;;;;;;4.88;1.88;;;;;;;14.52;100.00;93810.22;5135357;27;20204;-81
2021/06/29 02:49:40;;;;;;;5.15;1.70;;;;;;;14.50;100.00;93809.66;5135434;27;20197;-80
2021/06/29 02:52:07;;;;;;;5.43;2.63;;;;;;;14.51;100.00;93808.63;5136649;27;20240;-82
2021/06/29 02:54:34;;;;;;;3.45;2.03;;;;;;;14.53;100.00;93809.19;5137005;27;20200;-81
2021/06/29 02:57:01;;;;;;;9.13;2.20;;;;;;;14.47;100.00;93817.97;5138441;27;20193;-81
2021/06/29 02:59:27;;;;;;;4.40;2.03;;;;;;;14.41;100.00;93802.09;5138954;27;20197;-81
2021/06/29 03:01:55;;;;;;;3.28;2.78;;;;;;;14.38;100.00;93786.75;5137083;27;20214;-82
2021/06/29 03:04:22;;;;;;;3.95;2.17;;;;;;;14.39;100.00;93777.06;5135190;27;20232;-84
2021/06/29 03:06:48;;;;;;;2.92;1.90;;;;;;;14.37;100.00;93781.72;5136296;27;20200;-84
2021/06/29 03:09:15;;;;;;;3.10;1.95;;;;;;;14.35;100.00;93779.31;5136527;27;20208;-83
2021/06/29 03:11:41;;;;;;;11.45;2.70;;;;;;;14.32;100.00;93771.91;5136565;27;20288;-80
2021/06/29 03:14:08;;;;;;;3.30;2.23;;;;;;;14.29;100.00;93774.16;5135729;27;20563;-82
2021/06/29 03:16:34;;;;;;;3.67;2.47;;;;;;;14.35;100.00;93775.91;5136019;27;20431;-83
2021/06/29 03:19:03;;;;;;;2.67;1.85;;;;;;;14.32;100.00;93773.72;5135364;27;20197;-82
2021/06/29 03:21:29;;;;;;;2.08;1.88;;;;;;;14.33;100.00;93775.34;5136121;27;20196;-82
2021/06/29 03:23:56;;;;;;;5.68;2.17;;;;;;;14.37;100.00;93786.97;5136357;27;20221;-85
2021/06/29 03:26:23;;;;;;;3.28;2.08;;;;;;;14.32;100.00;93781.59;5135500;27;20566;-83
2021/06/29 03:28:49;;;;;;;3.08;2.00;;;;;;;14.35;100.00;93770.66;5135374;27;20236;-83
2021/06/29 03:31:16;;;;;;;5.07;2.03;;;;;;;14.30;100.00;93746.88;5135860;27;20630;-82
2021/06/29 03:33:42;;;;;;;4.07;2.20;;;;;;;14.25;100.00;93734.41;5135490;27;20196;-83
2021/06/29 03:36:11;;;;;;;2.90;2.13;;;;;;;14.22;100.00;93708.59;5136209;27;20192;-84
2021/06/29 03:38:38;;;;;;;3.85;2.55;;;;;;;14.16;100.00;93704.28;5136523;27;20197;-83
2021/06/29 03:41:04;;;;;;;2.47;1.90;;;;;;;14.15;100.00;93695.56;5135417;27;20201;-84
2021/06/29 03:43:34;;;;;;;4.77;2.30;;;;;;;14.12;100.00;93682.09;5135207;27;20220;-82
2021/06/29 03:46:01;;;;;;;2.63;1.90;;;;;;;14.17;100.00;93654.16;5135396;27;20196;-79
2021/06/29 03:48:27;;;;;;;2.83;2.10;;;;;;;14.14;100.00;93612.59;5135199;27;20203;-82
2021/06/29 03:50:54;;;;;;;3.65;2.22;;;;;;;14.04;100.00;93571.16;5134952;27;20201;-81
2021/06/29 03:53:22;;;;;;;7.78;2.80;;;;;;;14.04;100.00;93565.91;5134758;27;20203;-82
2021/06/29 03:55:48;;;;;;;3.60;2.10;;;;;;;14.06;100.00;93553.34;5134589;27;20207;-79
2021/06/29 03:58:15;;;;;;;3.80;2.10;;;;;;;13.98;100.00;93543.19;5134468;27;20571;-82
2021/06/29 04:00:42;;;;;;;5.30;2.30;;;;;;;13.94;100.00;93541.22;5134888;27;20197;-82
2021/06/29 04:03:08;;;;;;;5.50;2.13;;;;;;;13.89;100.00;93547.19;5136045;27;20291;-82
2021/06/29 04:05:36;;;;;;;3.83;1.87;;;;;;;13.88;100.00;93556.84;5135347;27;20231;-82
2021/06/29 04:08:03;;;;;;;2.23;1.63;;;;;;;13.99;100.00;93557.91;5135896;27;20207;-83
2021/06/29 04:10:31;;;;;;;2.63;1.60;;;;;;;13.98;100.00;93566.00;5137873;27;20204;-81
2021/06/29 04:12:58;;;;;;;2.17;1.40;;;;;;;13.98;100.00;93572.03;5138832;27;20197;-82
2021/06/29 04:15:25;;;;;;;1.80;1.30;;;;;;;14.10;100.00;93584.41;5135815;28;20212;-80
2021/06/29 04:17:51;;;;;;;3.53;1.43;;;;;;;14.14;100.00;93596.03;5134227;28;20217;-80
2021/06/29 04:20:18;;;;;;;2.27;1.53;;;;;;;14.11;100.00;93599.13;5136459;28;20754;-82
2021/06/29 04:22:44;;;;;;;1.73;1.30;;;;;;;14.13;100.00;93604.94;5135394;28;20204;-81
2021/06/29 04:25:12;;;;;;;3.60;1.45;;;;;;;14.17;100.00;93600.84;5135314;28;20232;-82
2021/06/29 04:27:40;;;;;;;3.15;1.38;;;;;;;14.14;100.00;93606.53;5134610;28;20228;-80
2021/06/29 04:30:08;;;;;;;1.83;1.40;;;;;;;14.09;100.00;93607.22;5137209;28;20201;-82
2021/06/29 04:32:35;;;;;;;1.70;1.30;;;;;;;14.17;100.00;93603.47;5134036;28;20196;-82
2021/06/29 04:35:01;;;;;;;4.50;1.70;;;;;;;14.16;100.00;93620.25;5134939;28;20197;-83
2021/06/29 04:37:28;;;;;;;2.70;1.50;;;;;;;14.11;100.00;93614.88;5133941;28;20203;-82
2021/06/29 04:39:54;;;;;;;2.90;1.80;;;;;;;14.06;100.00;93615.56;5133953;28;20539;-81
2021/06/29 04:42:23;;;;;;;5.73;1.60;;;;;;;14.15;100.00;93608.13;5133909;28;20196;-78
2021/06/29 04:44:51;;;;;;;2.78;1.58;;;;;;;14.12;100.00;93611.22;5133377;28;20461;-80
2021/06/29 04:47:17;;;;;;;1.95;1.70;;;;;;;14.13;100.00;93589.97;5134154;27;20271;-80
2021/06/29 04:49:44;;;;;;;2.30;1.75;;;;;;;14.10;100.00;93606.19;5137954;27;20567;-79
2021/06/29 04:52:10;;;;;;;2.28;1.60;;;;;;;14.07;100.00;93612.69;5137779;27;20208;-80
2021/06/29 04:54:37;;;;;;;2.53;1.60;;;;;;;14.09;100.00;93603.78;5137826;27;20655;-81
2021/06/29 04:57:04;;;;;;;2.27;1.37;;;;;;;14.16;100.00;93596.63;5137699;27;20532;-81
2021/06/29 04:59:30;;;;;;;3.77;1.60;;;;;;;14.15;100.00;93581.88;5137155;27;20204;-81
2021/06/29 05:01:58;;;;;;;3.92;1.45;;;;;;;14.12;100.00;93562.16;5137580;27;20204;-79
2021/06/29 05:04:25;;;;;;;1.67;1.30;;;;;;;14.08;100.00;93587.25;5137480;27;20228;-76
2021/06/29 05:06:51;;;;;;;2.00;1.20;;;;;;;14.11;100.00;93591.25;5137276;27;20245;-77
2021/06/29 05:09:17;;;;;;;1.40;1.30;;;;;;;14.16;100.00;93604.50;5137174;27;20207;-79
2021/06/29 05:11:44;;;;;;;2.00;1.50;;;;;;;14.13;100.00;93605.75;5137404;27;20193;-77
2021/06/29 05:14:10;;;;;;;1.77;1.27;;;;;;;14.22;100.00;93601.75;5137478;27;20197;-78
2021/06/29 05:16:38;;;;;;;3.13;1.30;;;;;;;14.28;100.00;93613.19;5137262;27;20200;-78
2021/06/29 05:19:06;;;;;;;2.92;1.27;;;;;;;14.27;100.00;93611.56;5137047;27;20200;-80
2021/06/29 05:21:32;;;;;;;2.83;1.00;;;;;;;14.32;100.00;93609.09;5137193;27;20201;-79
2021/06/29 05:23:59;;;;;;;1.50;1.20;;;;;;;14.32;100.00;93609.09;5137046;27;20225;-78
2021/06/29 05:26:25;;;;;;;2.00;1.20;;;;;;;14.40;100.00;93624.47;5137087;27;20283;-78
2021/06/29 05:28:52;;;;;;;1.65;1.48;;;;;;;14.41;100.00;93618.22;5136057;27;20829;-78
2021/06/29 05:31:18;;;;;;;1.10;1.00;;;;;;;14.42;100.00;93613.75;5137606;27;20204;-80
2021/06/29 05:33:45;;;;;;;1.85;1.17;;;;;;;14.39;100.00;93616.84;5136792;27;20583;-79
2021/06/29 05:36:13;;;;;;;0.90;0.85;;;;;;;14.41;100.00;93623.47;5136682;27;20291;-79
2021/06/29 05:38:39;;;;;;;2.88;1.30;;;;;;;14.57;100.00;93608.03;5136845;27;20212;-80
2021/06/29 05:41:06;;;;;;;1.40;1.10;;;;;;;14.68;100.00;93607.28;5136853;27;20201;-80
2021/06/29 05:43:32;;;;;;;1.42;1.33;;;;;;;14.70;100.00;93605.22;5136603;27;20201;-79
2021/06/29 05:45:59;;;;;;;1.67;1.10;;;;;;;14.72;100.00;93618.94;5136377;27;20583;-78
2021/06/29 05:48:28;;;;;;;2.53;1.30;;;;;;;14.91;100.00;93605.66;5136473;27;20210;-79
2021/06/29 05:50:54;;;;;;;1.75;1.33;;;;;;;14.85;100.00;93612.63;5136349;27;20243;-78
2021/06/29 05:53:23;;;;;;;1.85;1.38;;;;;;;14.97;100.00;93615.22;5136583;27;20196;-77
2021/06/29 05:55:49;;;;;;;3.53;1.58;;;;;;;14.96;100.00;93619.69;5136495;27;20241;-78
2021/06/29 05:58:16;;;;;;;2.55;1.15;;;;;;;15.01;100.00;93607.69;5136334;27;20201;-77
2021/06/29 06:00:43;;;;;;;1.27;1.17;;;;;;;15.25;100.00;93605.81;5136299;27;20283;-79
2021/06/29 06:03:09;;;;;;;1.48;1.30;;;;;;;15.51;100.00;93605.25;5136130;27;20204;-78
2021/06/29 06:05:36;;;;;;;1.20;1.10;;;;;;;15.54;100.00;93593.47;5135834;27;20281;-77
2021/06/29 06:08:02;;;;;;;1.45;1.10;;;;;;;15.91;100.00;93593.88;5136218;27;20196;-78
2021/06/29 06:10:30;;;;;;;1.55;1.10;;;;;;;16.31;100.00;93591.34;5136145;27;20200;-78
2021/06/29 06:12:57;;;;;;;1.73;1.13;;;;;;;17.24;100.00;93588.94;5134974;27;20789;-78
2021/06/29 06:15:23;;;;;;;2.40;0.75;;;;;;;18.38;100.00;93596.09;5136035;27;20197;-78
2021/06/29 06:17:50;;;;;;;1.15;0.77;;;;;;;19.31;100.00;93592.16;5135858;27;20200;-78
2021/06/29 06:20:18;;;;;;;1.27;0.60;;;;;;;19.81;100.00;93589.97;5136088;27;20223;-79
2021/06/29 06:22:44;;;;;;;1.73;0.88;;;;;;;19.53;97.78;93592.75;5135902;27;20300;-78
2021/06/29 06:25:11;;;;;;;1.80;0.82;;;;;;;19.35;97.16;93587.94;5135826;27;20228;-79
2021/06/29 06:27:39;;;;;;;1.13;0.70;;;;;;;17.80;100.00;93601.13;5135685;27;20224;-77
2021/06/29 06:30:08;;;;;;;0.75;0.75;;;;;;;18.34;100.00;93598.47;5135710;27;20246;-78
2021/06/29 06:32:34;;;;;;;1.48;0.50;;;;;;;18.95;96.21;93606.03;5135563;27;20213;-77
2021/06/29 06:35:01;;;;;;;2.13;0.70;;;;;;;19.28;93.39;93604.06;5135726;27;20203;-78
2021/06/29 06:37:27;;;;;;;1.27;0.75;;;;;;;19.73;92.43;93610.59;5135710;27;20562;-78
2021/06/29 06:39:54;;;;;;;0.90;0.50;;;;;;;19.63;92.21;93607.09;5135604;27;20249;-78
2021/06/29 06:42:20;;;;;;;0.82;0.60;;;;;;;19.40;91.33;93609.13;5135530;27;20246;-77
2021/06/29 06:44:48;;;;;;;1.58;0.60;;;;;;;18.17;100.00;93606.53;5135430;27;20232;-78
2021/06/29 06:47:14;;;;;;;0.70;0.57;;;;;;;17.46;100.00;93602.09;5135505;27;20209;-77
2021/06/29 06:49:41;;;;;;;1.35;0.82;;;;;;;17.39;100.00;93601.50;5135492;27;20208;-77
2021/06/29 06:52:08;;;;;;;2.22;0.70;;;;;;;17.68;100.00;93604.72;5134921;27;20261;-78
2021/06/29 06:54:35;;;;;;;0.82;0.70;;;;;;;18.20;100.00;93594.66;5135169;27;20243;-78
2021/06/29 06:57:01;;;;;;;1.42;0.70;;;;;;;18.89;100.00;93596.47;5134250;27;20908;-77
2021/06/29 06:59:28;;;;;;;0.70;0.65;;;;;;;18.92;99.06;93582.75;5135074;27;20230;-78
2021/06/29 07:01:55;;;;;;;1.67;0.70;;;;;;;19.21;96.83;93583.13;5134993;27;20219;-77
2021/06/29 07:04:22;;;;;;;0.50;0.50;;;;;;;19.19;100.00;93581.81;5135000;27;20257;-78
2021/06/29 07:06:48;;;;;;;2.72;0.80;;;;;;;19.00;99.44;93584.09;5134996;27;20201;-77
2021/06/29 07:09:16;;;;;;;0.70;0.70;;;;;;;18.73;100.00;93587.63;5134777;27;20558;-79
2021/06/29 07:11:42;;;;;;;0.95;0.70;;;;;;;18.33;100.00;93575.72;5134306;27;20222;-78
2021/06/29 07:14:09;;;;;;;1.23;0.90;;;;;;;17.98;100.00;93584.16;5134765;27;20203;-79
2021/06/29 07:16:35;;;;;;;2.20;1.00;;;;;;;17.11;100.00;93574.25;5135340;27;20209;-80
2021/06/29 07:19:03;;;;;;;2.03;0.98;;;;;;;17.02;100.00;93581.81;5135016;27;20207;-79
2021/06/29 07:21:30;;;;;;;4.00;1.00;;;;;;;16.98;100.00;93575.41;5134935;27;20597;-78
2021/06/29 07:23:57;;;;;;;2.40;1.08;;;;;;;17.00;100.00;93569.91;5134743;27;20207;-78
2021/06/29 07:26:24;;;;;;;1.65;1.15;;;;;;;17.12;100.00;93569.78;5134969;27;20690;-79
2021/06/29 07:28:51;;;;;;;1.95;1.00;;;;;;;17.34;100.00;93567.16;5134874;27;20812;-79
2021/06/29 07:31:18;;;;;;;1.02;1.00;;;;;;;17.11;100.00;93571.63;5134840;27;20200;-78
2021/06/29 07:33:44;;;;;;;1.15;0.90;;;;;;;16.96;100.00;93566.97;5134455;27;20258;-76
2021/06/29 07:36:13;;;;;;;1.10;1.00;;;;;;;16.92;100.00;93551.88;5134460;27;20605;-76
2021/06/29 07:38:39;;;;;;;1.80;1.13;;;;;;;17.32;100.00;93551.56;5134248;27;20554;-77
2021/06/29 07:41:06;;;;;;;0.93;0.88;;;;;;;17.57;100.00;93550.22;5134257;27;20204;-76
2021/06/29 07:43:33;;;;;;;1.05;1.00;;;;;;;17.86;100.00;93552.59;5134422;27;20219;-77
2021/06/29 07:45:59;;;;;;;1.50;1.15;;;;;;;17.73;100.00;93551.16;5134678;27;20231;-79
2021/06/29 07:48:26;;;;;;;2.83;1.00;;;;;;;18.38;100.00;93548.53;5134295;27;20256;-76
2021/06/29 07:50:53;;;;;;;1.90;1.52;;;;;;;18.36;100.00;93551.44;5134208;27;20197;-76
2021/06/29 07:53:21;;;;;;;3.20;1.10;;;;;;;18.60;100.00;93551.03;5134214;27;20199;-77
2021/06/29 07:55:49;;;;;;;3.33;0.98;;;;;;;19.07;100.00;93550.25;5133979;27;20200;-76
2021/06/29 07:58:15;;;;;;;2.05;1.20;;;;;;;19.22;99.84;93537.06;5134240;27;20192;-78
2021/06/29 08:00:42;;;;;;;1.38;1.00;;;;;;;19.17;99.34;93539.72;5135177;27;20200;-79
2021/06/29 08:03:09;;;;;;;2.28;1.35;;;;;;;19.41;100.00;93529.44;5134168;27;20201;-80
2021/06/29 08:05:35;;;;;;;1.00;0.90;;;;;;;19.62;100.00;93523.38;5135976;27;20225;-82
2021/06/29 08:08:05;;;;;;;3.85;1.02;;;;;;;19.48;100.00;93520.47;5138892;27;20197;-84
2021/06/29 08:10:33;;;;;;;1.88;0.98;;;;;;;19.11;100.00;93514.28;5127024;27;20197;-83
2021/06/29 08:12:59;;;;;;;1.75;1.30;;;;;;;18.82;100.00;93509.38;5134387;27;20587;-80
2021/06/29 08:15:27;;;;;;;2.15;1.00;;;;;;;18.57;100.00;93515.34;5134017;27;20205;-79
2021/06/29 08:17:54;;;;;;;2.75;0.90;;;;;;;18.69;100.00;93517.78;5133956;28;20284;-82
2021/06/29 08:20:21;;;;;;;0.98;0.93;;;;;;;18.49;100.00;93508.69;5135173;28;20200;-79
2021/06/29 08:22:48;;;;;;;0.85;0.85;;;;;;;18.55;100.00;93511.34;5135211;27;20199;-80
2021/06/29 08:25:15;;;;;;;0.93;0.85;;;;;;;18.70;100.00;93513.28;5139236;27;20301;-84
2021/06/29 08:27:43;;;;;;;0.80;0.80;;;;;;;19.02;100.00;93507.91;5138867;27;20289;-86
2021/06/29 08:30:12;;;;;;;3.78;1.00;;;;;;;19.13;100.00;93506.06;5138365;27;20204;-82
2021/06/29 08:32:39;;;;;;;1.00;0.90;;;;;;;19.13;100.00;93500.78;5138838;27;20531;-81
2021/06/29 08:35:06;;;;;;;2.58;0.75;;;;;;;19.36;99.26;93500.31;5138824;27;20216;-80
2021/06/29 08:37:32;;;;;;;1.17;0.80;;;;;;;19.46;99.88;93496.88;5138454;27;20196;-83
2021/06/29 08:39:59;;;;;;;0.90;0.82;;;;;;;19.70;100.00;93493.72;5138884;27;20200;-85
2021/06/29 08:42:26;;;;;;;0.68;0.68;;;;;;;19.70;97.24;93491.91;5139180;27;20689;-83
2021/06/29 08:44:55;;;;;;;1.65;0.90;;;;;;;19.66;100.00;93490.03;5139188;27;20204;-85
2021/06/29 08:47:21;;;;;;;0.93;0.77;;;;;;;19.68;98.97;93490.56;5139401;27;20254;-85
2021/06/29 08:49:48;;;;;;;5.82;0.82;;;;;;;19.53;99.98;93481.53;5139975;27;20212;-86
2021/06/29 08:52:14;;;;;;;0.82;0.75;;;;;;;19.84;98.07;93484.25;5138734;27;20200;-85
2021/06/29 08:54:41;;;;;;;0.90;0.73;;;;;;;19.94;100.00;93471.00;5138925;27;20249;-83
2021/06/29 08:57:09;;;;;;;1.38;0.60;;;;;;;20.00;99.67;93470.97;5138889;27;20204;-86
2021/06/29 08:59:35;;;;;;;1.88;0.95;;;;;;;20.19;100.00;93469.38;5138139;27;20655;-84
2021/06/29 09:02:04;;;;;;;0.73;0.73;;;;;;;20.31;92.28;93461.91;5138357;27;20197;-85
2021/06/29 09:04:43;;;;;;;0.90;0.80;;;;;;;20.56;99.76;93467.44;5137610;27;20773;-84
2021/06/29 09:07:20;;;;;;;0.50;0.50;;;;;;;20.75;87.82;93459.69;5139458;27;20224;-85
2021/06/29 09:09:48;;;;;;;1.50;0.63;;;;;;;21.25;95.73;93458.66;5139278;27;20202;-85
2021/06/29 09:12:15;;;;;;;0.73;0.70;;;;;;;21.16;87.44;93449.69;5137969;27;20726;-80
2021/06/29 09:14:41;;;;;;;0.50;0.50;;;;;;;21.29;84.15;93448.28;5138893;27;20222;-84
2021/06/29 09:17:20;;;;;;;0.95;0.68;;;;;;;21.30;90.89;93436.59;5138862;27;20208;-85
2021/06/29 09:19:47;;;;;;;1.50;0.68;;;;;;;21.43;88.01;93438.66;5138776;27;20250;-85
2021/06/29 09:22:28;;;;;;;6.03;0.88;;;;;;;21.54;86.28;93438.59;5139454;27;20197;-84
2021/06/29 09:24:55;;;;;;;0.90;0.60;;;;;;;21.49;86.30;93426.13;5140774;27;20204;-84
2021/06/29 09:27:42;;;;;;;0.80;0.60;;;;;;;21.39;86.15;93420.88;5139636;27;20224;-83
2021/06/29 09:30:29;;;;;;;1.92;0.60;;;;;;;21.38;93.69;93403.34;5138612;27;20672;-85
2021/06/29 09:33:00;;;;;;;0.60;0.60;;;;;;;21.25;87.29;93400.25;5138782;27;20196;-85
2021/06/29 09:35:28;;;;;;;2.67;0.60;;;;;;;21.13;87.78;93397.13;5137159;27;20285;-84
2021/06/29 09:37:55;;;;;;;0.80;0.60;;;;;;;21.23;84.44;93385.66;5117098;28;20241;-85
2021/06/29 09:40:21;;;;;;;1.02;0.55;;;;;;;21.37;79.33;93386.63;5116673;28;20208;-81
2021/06/29 09:42:48;;;;;;;0.40;0.40;;;;;;;21.51;79.75;93375.38;5116326;28;20201;-81
2021/06/29 09:45:33;;;;;;;0.60;0.60;;;;;;;21.70;81.98;93370.16;5117127;28;20201;-85
2021/06/29 09:48:01;;;;;;;1.55;0.60;;;;;;;22.07;79.21;93364.25;5117162;28;20197;-84
2021/06/29 09:50:36;;;;;;;0.80;0.60;;;;;;;21.89;75.08;93375.59;5117870;28;20193;-86
2021/06/29 09:53:12;;;;;;;1.40;0.50;;;;;;;22.02;76.55;93380.25;5118857;28;20197;-85
2021/06/29 09:55:39;;;;;;;1.20;0.40;;;;;;;22.42;74.92;93375.59;5118370;28;20255;-85
2021/06/29 09:58:10;;;;;;;2.20;0.47;;;;;;;22.44;74.74;93370.75;5118382;28;20209;-83
2021/06/29 10:00:44;;;;;;;1.75;0.50;;;;;;;22.36;72.78;93374.06;5118289;28;20208;-82
2021/06/29 10:03:26;;;;;;;0.75;0.60;;;;;;;22.49;71.69;93365.38;5117133;28;20203;-84
2021/06/29 10:05:54;;;;;;;0.95;0.50;;;;;;;22.91;74.39;93363.78;5116030;28;20587;-85
2021/06/29 10:08:26;;;;;;;1.50;0.60;;;;;;;22.92;70.39;93370.69;5119560;28;20193;-86
2021/06/29 10:11:14;;;;;;;0.50;0.50;;;;;;;23.07;73.97;93368.94;5118511;28;20656;-84
2021/06/29 10:13:43;;;;;;;0.45;0.40;;;;;;;23.17;74.62;93368.78;5117377;28;20297;-86
2021/06/29 10:16:11;;;;;;;1.42;0.50;;;;;;;23.25;72.93;93368.13;5121333;28;20231;-86
2021/06/29 10:18:43;;;;;;;1.38;0.50;;;;;;;23.06;73.97;93361.97;5119681;28;20200;-86
2021/06/29 10:21:19;;;;;;;1.10;0.60;;;;;;;23.05;68.33;93363.84;5125747;28;20202;-84
2021/06/29 10:23:47;;;;;;;0.50;0.50;;;;;;;23.27;73.84;93354.53;5123471;28;20212;-83
2021/06/29 10:26:14;;;;;;;1.27;0.95;;;;;;;22.96;77.97;93354.91;5118696;28;20221;-83
2021/06/29 10:28:42;;;;;;;2.92;0.85;;;;;;;22.79;78.98;93359.97;5115549;28;20544;-83
2021/06/29 10:31:10;;;;;;;0.85;0.75;;;;;;;22.73;78.13;93356.56;5117093;28;20224;-84
2021/06/29 10:33:37;;;;;;;0.98;0.80;;;;;;;22.64;76.79;93359.06;5119233;28;20201;-83
2021/06/29 10:36:06;;;;;;;4.93;0.70;;;;;;;22.44;80.35;93354.03;5117180;28;20243;-83
2021/06/29 10:38:34;;;;;;;0.90;0.80;;;;;;;22.40;83.99;93360.97;5116325;28;20193;-82
2021/06/29 10:41:01;;;;;;;1.48;1.02;;;;;;;22.08;88.34;93351.72;5116268;28;20676;-82
2021/06/29 10:43:29;;;;;;;1.13;1.02;;;;;;;22.20;86.72;93348.66;5115419;28;20201;-84
2021/06/29 10:48:41;;;;;;;1.40;1.20;;;;;;;22.95;84.57;93363.19;5116079;28;20302;-83
2021/06/29 10:51:13;;;;;;;1.63;0.90;;;;;;;23.11;80.75;93366.47;5115865;28;20205;-82
2021/06/29 10:53:45;;;;;;;5.80;0.95;;;;;;;22.79;82.16;93355.44;5115661;28;20205;-82
2021/06/29 10:56:17;;;;;;;0.80;0.80;;;;;;;22.46;81.62;93351.88;5116630;28;20200;-82
2021/06/29 10:58:45;;;;;;;1.65;1.05;;;;;;;22.63;80.08;93359.38;5117021;28;20254;-82
2021/06/29 11:01:26;;;;;;;1.75;1.00;;;;;;;22.50;82.24;93353.69;5125717;27;20275;-84
2021/06/29 11:03:55;;;;;;;1.40;1.20;;;;;;;22.46;80.83;93349.97;5136811;27;20204;-81
2021/06/29 11:06:43;;;;;;;4.10;1.20;;;;;;;22.51;83.17;93357.91;5136512;27;20231;-84
2021/06/29 11:09:16;;;;;;;1.10;1.00;;;;;;;22.30;84.03;93359.22;5138372;27;20208;-85
2021/06/29 11:12:22;;;;;;;3.50;0.90;;;;;;;22.66;84.58;93369.44;5137175;27;20288;-83
2021/06/29 11:14:50;;;;;;;2.15;1.10;;;;;;;23.05;80.50;93363.06;5137575;27;20197;-84
2021/06/29 11:17:17;;;;;;;2.53;0.80;;;;;;;23.65;81.83;93368.56;5138772;27;20201;-84
2021/06/29 11:20:07;;;;;;;1.00;0.90;;;;;;;22.97;80.85;93361.06;5138484;27;20204;-83
2021/06/29 11:22:55;;;;;;;1.70;0.68;;;;;;;22.81;82.11;93355.94;5141106;27;20651;-84
2021/06/29 11:25:36;;;;;;;3.50;1.10;;;;;;;22.54;83.01;93354.69;5127215;27;20205;-79
2021/06/29 11:28:06;;;;;;;2.15;1.02;;;;;;;22.63;83.37;93352.19;5139347;27;20270;-83
2021/06/29 11:31:09;;;;;;;2.55;1.30;;;;;;;22.82;84.79;93352.19;5139594;27;20378;-84
2021/06/29 11:33:53;;;;;;;1.27;1.00;;;;;;;22.50;86.97;93348.34;5138970;27;20273;-84
2021/06/29 11:36:51;;;;;;;2.67;1.15;;;;;;;22.85;83.38;93354.28;5139077;27;20209;-82
2021/06/29 11:39:40;;;;;;;3.00;1.10;;;;;;;22.28;85.94;93356.03;5137850;27;20701;-83
2021/06/29 11:42:24;;;;;;;2.78;1.30;;;;;;;22.07;88.48;93363.47;5137788;27;20201;-83
2021/06/29 11:45:02;;;;;;;2.05;1.10;;;;;;;21.73;90.33;93372.28;5138631;27;20210;-82
2021/06/29 11:47:38;;;;;;;2.38;1.20;;;;;;;21.51;89.15;93375.38;5136358;27;20220;-83
2021/06/29 11:50:17;;;;;;;1.90;1.30;;;;;;;21.93;90.11;93369.44;5137251;27;20271;-83
2021/06/29 11:52:50;;;;;;;1.73;1.30;;;;;;;22.32;89.57;93367.72;5139791;27;20202;-83
2021/06/29 11:55:20;;;;;;;3.60;1.30;;;;;;;22.47;86.97;93370.19;5136464;27;20200;-81
2021/06/29 11:57:53;;;;;;;2.58;1.10;;;;;;;22.86;83.94;93376.38;5137599;27;20200;-83
2021/06/29 12:00:28;;;;;;;3.60;1.50;;;;;;;22.85;85.88;93369.47;5138664;27;20197;-84